sensor_id;sensor_type;location;lat;lon;timestamp;P1;P2;P0
12246;PMS7003;6186;52.022;4.692;2022-11-04T00:01:36;1.00;1.00;0.00
12246;PMS7003;6186;52.022;4.692;2022-11-04T00:04:03;1.00;1.00;0.00
12246;PMS7003;6186;52.022;4.692;2022-11-04T00:06:29;1.00;1.00;0.00
12246;PMS7003;6186;52.022;4.692;2022-11-04T00:08:56;1.00;1.00;0.00
12246;PMS7003;6186;52.022;4.692;2022-11-04T00:11:22;1.00;1.00;0.00
12246;PMS7003;6186;52.022;4.692;2022-11-04T00:14:08;1.00;1.00;0.00
12246;PMS7003;6186;52.022;4.692;2022-11-04T00:16:34;1.00;1.00;0.00
12246;PMS7003;6186;52.022;4.692;2022-11-04T00:19:18;2.00;1.00;0.00
12246;PMS7003;6186;52.022;4.692;2022-11-04T00:21:43;2.00;1.00;0.00
12246;PMS7003;6186;52.022;4.692;2022-11-04T00:24:27;1.00;1.00;0.00
12246;PMS7003;6186;52.022;4.692;2022-11-04T00:27:12;1.80;1.00;0.00
12246;PMS7003;6186;52.022;4.692;2022-11-04T00:29:58;1.00;1.00;0.00
12246;PMS7003;6186;52.022;4.692;2022-11-04T00:32:23;1.00;1.00;0.00
12246;PMS7003;6186;52.022;4.692;2022-11-04T00:35:08;1.00;1.00;0.00
12246;PMS7003;6186;52.022;4.692;2022-11-04T00:37:35;1.00;1.00;0.00
12246;PMS7003;6186;52.022;4.692;2022-11-04T00:40:01;1.00;1.00;0.00
12246;PMS7003;6186;52.022;4.692;2022-11-04T00:42:27;2.60;1.20;0.00
12246;PMS7003;6186;52.022;4.692;2022-11-04T00:44:53;1.75;1.00;0.00
12246;PMS7003;6186;52.022;4.692;2022-11-04T00:47:18;1.00;1.00;0.00
12246;PMS7003;6186;52.022;4.692;2022-11-04T00:49:43;1.00;1.00;0.00
12246;PMS7003;6186;52.022;4.692;2022-11-04T00:52:08;1.00;1.00;0.00
12246;PMS7003;6186;52.022;4.692;2022-11-04T00:54:34;1.00;1.00;0.00
12246;PMS7003;6186;52.022;4.692;2022-11-04T00:56:59;1.00;1.00;0.00
12246;PMS7003;6186;52.022;4.692;2022-11-04T00:59:24;2.00;1.00;0.00
12246;PMS7003;6186;52.022;4.692;2022-11-04T01:01:50;1.00;1.00;0.00
12246;PMS7003;6186;52.022;4.692;2022-11-04T01:04:15;1.00;1.00;0.00
12246;PMS7003;6186;52.022;4.692;2022-11-04T01:06:40;1.00;1.00;0.00
12246;PMS7003;6186;52.022;4.692;2022-11-04T01:09:06;1.00;1.00;0.00
12246;PMS7003;6186;52.022;4.692;2022-11-04T01:11:32;1.00;1.00;0.00
12246;PMS7003;6186;52.022;4.692;2022-11-04T01:13:58;1.00;1.00;0.00
12246;PMS7003;6186;52.022;4.692;2022-11-04T01:16:24;1.00;1.00;0.00
12246;PMS7003;6186;52.022;4.692;2022-11-04T01:18:51;1.00;1.00;0.00
12246;PMS7003;6186;52.022;4.692;2022-11-04T01:21:16;1.00;1.00;0.00
12246;PMS7003;6186;52.022;4.692;2022-11-04T01:23:42;1.00;1.00;0.00
12246;PMS7003;6186;52.022;4.692;2022-11-04T01:26:13;1.00;1.00;0.00
12246;PMS7003;6186;52.022;4.692;2022-11-04T01:28:43;1.00;1.00;0.00
12246;PMS7003;6186;52.022;4.692;2022-11-04T01:31:10;1.60;1.60;0.00
12246;PMS7003;6186;52.022;4.692;2022-11-04T01:33:37;1.00;1.00;0.00
12246;PMS7003;6186;52.022;4.692;2022-11-04T01:36:03;1.00;1.00;0.00
12246;PMS7003;6186;52.022;4.692;2022-11-04T01:38:30;1.00;1.00;0.00
12246;PMS7003;6186;52.022;4.692;2022-11-04T01:40:55;1.00;1.00;0.00
12246;PMS7003;6186;52.022;4.692;2022-11-04T01:43:21;1.00;1.00;0.00
12246;PMS7003;6186;52.022;4.692;2022-11-04T01:45:51;1.00;1.00;0.00
12246;PMS7003;6186;52.022;4.692;2022-11-04T01:48:24;1.00;1.00;0.00
12246;PMS7003;6186;52.022;4.692;2022-11-04T01:50:53;1.00;1.00;0.00
12246;PMS7003;6186;52.022;4.692;2022-11-04T01:53:27;1.00;1.00;0.00
12246;PMS7003;6186;52.022;4.692;2022-11-04T01:55:56;2.00;2.00;0.00
12246;PMS7003;6186;52.022;4.692;2022-11-04T01:58:27;1.40;1.00;0.00
12246;PMS7003;6186;52.022;4.692;2022-11-04T02:00:56;1.00;1.00;0.00
12246;PMS7003;6186;52.022;4.692;2022-11-04T02:03:31;1.00;1.00;0.00
12246;PMS7003;6186;52.022;4.692;2022-11-04T02:06:02;1.00;1.00;0.00
12246;PMS7003;6186;52.022;4.692;2022-11-04T02:08:28;1.00;1.00;0.00
12246;PMS7003;6186;52.022;4.692;2022-11-04T02:10:57;1.50;1.00;0.00
12246;PMS7003;6186;52.022;4.692;2022-11-04T02:13:25;1.00;1.00;0.00
12246;PMS7003;6186;52.022;4.692;2022-11-04T02:15:54;1.40;1.00;0.00
12246;PMS7003;6186;52.022;4.692;2022-11-04T02:26:52;1.00;1.00;0.00
12246;PMS7003;6186;52.022;4.692;2022-11-04T02:32:23;2.00;2.00;0.00
12246;PMS7003;6186;52.022;4.692;2022-11-04T02:43:00;1.00;1.00;0.00
12246;PMS7003;6186;52.022;4.692;2022-11-04T02:45:34;1.80;1.00;0.00
12246;PMS7003;6186;52.022;4.692;2022-11-04T02:48:04;2.00;1.00;0.00
12246;PMS7003;6186;52.022;4.692;2022-11-04T02:53:25;3.60;3.00;1.00
12246;PMS7003;6186;52.022;4.692;2022-11-04T02:56:21;3.00;3.00;1.00
12246;PMS7003;6186;52.022;4.692;2022-11-04T02:59:00;2.00;2.00;0.80
12246;PMS7003;6186;52.022;4.692;2022-11-04T03:01:32;3.00;2.00;1.00
12246;PMS7003;6186;52.022;4.692;2022-11-04T03:04:20;3.80;3.00;1.00
12246;PMS7003;6186;52.022;4.692;2022-11-04T03:06:52;4.00;3.00;1.00
12246;PMS7003;6186;52.022;4.692;2022-11-04T03:09:20;2.40;2.40;1.00
12246;PMS7003;6186;52.022;4.692;2022-11-04T03:11:49;3.40;3.00;1.00
12246;PMS7003;6186;52.022;4.692;2022-11-04T03:14:19;3.20;3.00;1.00
12246;PMS7003;6186;52.022;4.692;2022-11-04T03:16:52;3.60;3.00;1.00
12246;PMS7003;6186;52.022;4.692;2022-11-04T03:19:37;5.20;4.00;1.80
12246;PMS7003;6186;52.022;4.692;2022-11-04T03:22:27;4.00;3.60;1.00
12246;PMS7003;6186;52.022;4.692;2022-11-04T03:24:55;5.60;4.00;1.40
12246;PMS7003;6186;52.022;4.692;2022-11-04T03:30:06;5.00;4.60;1.00
12246;PMS7003;6186;52.022;4.692;2022-11-04T03:32:37;5.20;5.20;2.80
12246;PMS7003;6186;52.022;4.692;2022-11-04T03:35:08;5.20;5.20;2.00
12246;PMS7003;6186;52.022;4.692;2022-11-04T03:37:36;6.00;5.40;2.00
12246;PMS7003;6186;52.022;4.692;2022-11-04T03:40:02;4.00;4.00;2.00
12246;PMS7003;6186;52.022;4.692;2022-11-04T03:42:28;5.20;5.20;1.40
12246;PMS7003;6186;52.022;4.692;2022-11-04T03:44:58;7.20;6.40;2.80
12246;PMS7003;6186;52.022;4.692;2022-11-04T03:47:26;5.75;5.75;3.00
12246;PMS7003;6186;52.022;4.692;2022-11-04T03:50:15;5.20;5.20;2.00
12246;PMS7003;6186;52.022;4.692;2022-11-04T03:52:52;5.80;5.80;2.40
12246;PMS7003;6186;52.022;4.692;2022-11-04T03:55:18;5.40;5.40;2.00
12246;PMS7003;6186;52.022;4.692;2022-11-04T04:00:33;5.00;4.60;2.00
12246;PMS7003;6186;52.022;4.692;2022-11-04T04:10:50;5.40;5.40;2.00
12246;PMS7003;6186;52.022;4.692;2022-11-04T04:13:38;9.20;7.00;2.00
12246;PMS7003;6186;52.022;4.692;2022-11-04T04:16:14;5.40;4.60;2.00
12246;PMS7003;6186;52.022;4.692;2022-11-04T04:21:21;7.00;5.60;3.00
12246;PMS7003;6186;52.022;4.692;2022-11-04T04:23:52;4.00;4.00;2.40
12246;PMS7003;6186;52.022;4.692;2022-11-04T04:26:40;8.40;7.60;3.00
12246;PMS7003;6186;52.022;4.692;2022-11-04T04:29:26;5.80;5.80;2.00
12246;PMS7003;6186;52.022;4.692;2022-11-04T04:31:54;7.40;7.00;3.00
12246;PMS7003;6186;52.022;4.692;2022-11-04T04:34:26;7.00;7.00;2.60
12246;PMS7003;6186;52.022;4.692;2022-11-04T04:37:00;7.00;5.40;2.60
12246;PMS7003;6186;52.022;4.692;2022-11-04T04:39:28;8.80;7.80;2.00
12246;PMS7003;6186;52.022;4.692;2022-11-04T04:42:17;11.00;7.80;3.60
12246;PMS7003;6186;52.022;4.692;2022-11-04T04:45:06;8.00;8.00;3.40
12246;PMS7003;6186;52.022;4.692;2022-11-04T04:47:42;7.00;6.80;2.20
12246;PMS7003;6186;52.022;4.692;2022-11-04T04:50:10;8.60;7.00;3.60
12246;PMS7003;6186;52.022;4.692;2022-11-04T04:52:40;8.00;6.80;2.60
12246;PMS7003;6186;52.022;4.692;2022-11-04T04:55:08;10.40;7.60;4.00
12246;PMS7003;6186;52.022;4.692;2022-11-04T04:57:34;7.60;7.00;2.00
12246;PMS7003;6186;52.022;4.692;2022-11-04T05:00:00;6.75;5.75;3.00
12246;PMS7003;6186;52.022;4.692;2022-11-04T05:02:25;9.00;8.50;3.50
12246;PMS7003;6186;52.022;4.692;2022-11-04T05:04:51;7.00;7.00;2.00
12246;PMS7003;6186;52.022;4.692;2022-11-04T05:07:16;7.00;7.00;2.25
12246;PMS7003;6186;52.022;4.692;2022-11-04T05:09:41;7.00;7.00;3.00
12246;PMS7003;6186;52.022;4.692;2022-11-04T05:12:07;7.50;7.00;3.00
12246;PMS7003;6186;52.022;4.692;2022-11-04T05:14:33;7.40;7.00;3.00
12246;PMS7003;6186;52.022;4.692;2022-11-04T05:16:59;8.00;7.80;3.00
12246;PMS7003;6186;52.022;4.692;2022-11-04T05:19:25;9.00;8.00;3.00
12246;PMS7003;6186;52.022;4.692;2022-11-04T05:21:50;9.00;8.50;3.75
12246;PMS7003;6186;52.022;4.692;2022-11-04T05:24:15;8.75;7.00;3.00
12246;PMS7003;6186;52.022;4.692;2022-11-04T05:26:40;7.75;7.00;3.75
12246;PMS7003;6186;52.022;4.692;2022-11-04T05:29:06;8.00;8.00;3.00
12246;PMS7003;6186;52.022;4.692;2022-11-04T05:31:31;8.00;7.00;3.00
12246;PMS7003;6186;52.022;4.692;2022-11-04T05:33:56;8.00;7.00;3.00
12246;PMS7003;6186;52.022;4.692;2022-11-04T05:36:23;8.00;7.00;3.00
12246;PMS7003;6186;52.022;4.692;2022-11-04T05:38:50;8.00;8.00;3.00
12246;PMS7003;6186;52.022;4.692;2022-11-04T05:41:16;7.00;6.60;3.40
12246;PMS7003;6186;52.022;4.692;2022-11-04T05:43:50;6.40;5.60;2.60
12246;PMS7003;6186;52.022;4.692;2022-11-04T05:46:19;5.20;5.20;2.60
12246;PMS7003;6186;52.022;4.692;2022-11-04T05:48:45;6.25;6.00;2.50
12246;PMS7003;6186;52.022;4.692;2022-11-04T05:51:13;5.25;5.25;3.00
12246;PMS7003;6186;52.022;4.692;2022-11-04T05:53:40;8.80;8.00;3.80
12246;PMS7003;6186;52.022;4.692;2022-11-04T05:56:06;5.60;5.20;2.80
12246;PMS7003;6186;52.022;4.692;2022-11-04T05:58:31;8.25;7.00;3.00
12246;PMS7003;6186;52.022;4.692;2022-11-04T06:03:52;7.20;7.00;3.00
12246;PMS7003;6186;52.022;4.692;2022-11-04T06:06:18;6.20;6.20;2.40
12246;PMS7003;6186;52.022;4.692;2022-11-04T06:08:44;5.60;5.40;3.00
12246;PMS7003;6186;52.022;4.692;2022-11-04T06:11:09;4.50;4.50;2.00
12246;PMS7003;6186;52.022;4.692;2022-11-04T06:13:35;4.50;4.00;2.00
12246;PMS7003;6186;52.022;4.692;2022-11-04T06:16:00;4.75;4.00;2.00
12246;PMS7003;6186;52.022;4.692;2022-11-04T06:18:26;4.75;4.25;2.00
12246;PMS7003;6186;52.022;4.692;2022-11-04T06:21:20;7.00;7.00;3.00
12246;PMS7003;6186;52.022;4.692;2022-11-04T06:23:51;6.20;6.00;2.00
12246;PMS7003;6186;52.022;4.692;2022-11-04T06:26:19;7.00;5.60;2.00
12246;PMS7003;6186;52.022;4.692;2022-11-04T06:28:45;7.60;7.60;3.40
12246;PMS7003;6186;52.022;4.692;2022-11-04T06:31:11;4.50;4.50;2.00
12246;PMS7003;6186;52.022;4.692;2022-11-04T06:33:38;6.80;5.40;2.00
12246;PMS7003;6186;52.022;4.692;2022-11-04T06:36:04;7.00;5.25;2.00
12246;PMS7003;6186;52.022;4.692;2022-11-04T06:38:32;5.80;5.60;2.00
12246;PMS7003;6186;52.022;4.692;2022-11-04T06:40:59;8.00;4.60;2.00
12246;PMS7003;6186;52.022;4.692;2022-11-04T06:43:25;5.00;4.00;2.00
12246;PMS7003;6186;52.022;4.692;2022-11-04T06:45:54;4.00;4.00;2.00
12246;PMS7003;6186;52.022;4.692;2022-11-04T06:48:20;7.00;5.40;2.00
12246;PMS7003;6186;52.022;4.692;2022-11-04T06:50:46;6.50;5.00;2.00
12246;PMS7003;6186;52.022;4.692;2022-11-04T06:53:12;6.00;6.00;2.25
12246;PMS7003;6186;52.022;4.692;2022-11-04T06:55:37;7.00;6.00;2.00
12246;PMS7003;6186;52.022;4.692;2022-11-04T06:58:02;6.50;6.25;3.00
12246;PMS7003;6186;52.022;4.692;2022-11-04T07:00:27;4.00;4.00;2.00
12246;PMS7003;6186;52.022;4.692;2022-11-04T07:02:53;7.00;5.75;3.00
12246;PMS7003;6186;52.022;4.692;2022-11-04T07:05:18;5.75;5.00;2.50
12246;PMS7003;6186;52.022;4.692;2022-11-04T07:07:43;5.00;3.75;1.00
12246;PMS7003;6186;52.022;4.692;2022-11-04T07:10:11;4.00;4.00;2.00
12246;PMS7003;6186;52.022;4.692;2022-11-04T07:12:37;4.50;4.50;1.50
12246;PMS7003;6186;52.022;4.692;2022-11-04T07:15:02;4.00;4.00;2.00
12246;PMS7003;6186;52.022;4.692;2022-11-04T07:17:28;4.00;4.00;1.25
12246;PMS7003;6186;52.022;4.692;2022-11-04T07:19:53;3.75;3.00;1.00
12246;PMS7003;6186;52.022;4.692;2022-11-04T07:22:18;5.50;5.00;2.00
12246;PMS7003;6186;52.022;4.692;2022-11-04T07:24:44;3.00;3.00;1.25
12246;PMS7003;6186;52.022;4.692;2022-11-04T07:27:09;4.50;4.00;1.00
12246;PMS7003;6186;52.022;4.692;2022-11-04T07:29:34;4.00;3.25;1.00
12246;PMS7003;6186;52.022;4.692;2022-11-04T07:31:59;6.25;6.00;2.00
12246;PMS7003;6186;52.022;4.692;2022-11-04T07:34:25;5.25;5.25;2.00
12246;PMS7003;6186;52.022;4.692;2022-11-04T07:36:50;3.25;3.00;2.00
12246;PMS7003;6186;52.022;4.692;2022-11-04T07:39:15;5.00;4.75;2.00
12246;PMS7003;6186;52.022;4.692;2022-11-04T07:41:41;4.00;3.00;1.00
12246;PMS7003;6186;52.022;4.692;2022-11-04T07:44:09;4.00;4.00;1.25
12246;PMS7003;6186;52.022;4.692;2022-11-04T07:46:35;5.40;4.20;1.40
12246;PMS7003;6186;52.022;4.692;2022-11-04T07:49:01;4.60;4.00;2.00
12246;PMS7003;6186;52.022;4.692;2022-11-04T07:51:26;5.25;4.50;2.00
12246;PMS7003;6186;52.022;4.692;2022-11-04T07:53:53;7.25;5.00;2.00
12246;PMS7003;6186;52.022;4.692;2022-11-04T07:56:19;3.40;3.20;1.00
12246;PMS7003;6186;52.022;4.692;2022-11-04T07:58:44;7.75;5.00;2.00
12246;PMS7003;6186;52.022;4.692;2022-11-04T08:01:12;4.75;3.50;1.00
12246;PMS7003;6186;52.022;4.692;2022-11-04T08:03:40;4.20;4.00;2.00
12246;PMS7003;6186;52.022;4.692;2022-11-04T08:06:06;3.00;3.00;1.00
12246;PMS7003;6186;52.022;4.692;2022-11-04T08:08:33;3.00;3.00;1.00
12246;PMS7003;6186;52.022;4.692;2022-11-04T08:11:03;3.00;3.00;1.00
12246;PMS7003;6186;52.022;4.692;2022-11-04T08:13:34;4.00;4.00;2.00
12246;PMS7003;6186;52.022;4.692;2022-11-04T08:16:00;5.20;5.00;2.00
12246;PMS7003;6186;52.022;4.692;2022-11-04T08:18:31;4.00;4.00;2.00
12246;PMS7003;6186;52.022;4.692;2022-11-04T08:20:57;6.20;4.00;1.20
12246;PMS7003;6186;52.022;4.692;2022-11-04T08:23:22;4.00;4.00;2.00
12246;PMS7003;6186;52.022;4.692;2022-11-04T08:25:48;4.50;4.25;2.00
12246;PMS7003;6186;52.022;4.692;2022-11-04T08:28:13;4.50;4.00;2.00
12246;PMS7003;6186;52.022;4.692;2022-11-04T08:31:00;3.80;3.80;2.00
12246;PMS7003;6186;52.022;4.692;2022-11-04T08:33:28;5.40;5.20;2.00
12246;PMS7003;6186;52.022;4.692;2022-11-04T08:35:57;4.40;4.40;2.00
12246;PMS7003;6186;52.022;4.692;2022-11-04T08:38:25;4.00;4.00;2.00
12246;PMS7003;6186;52.022;4.692;2022-11-04T08:40:51;4.75;4.25;2.50
12246;PMS7003;6186;52.022;4.692;2022-11-04T08:43:16;5.50;5.00;2.00
12246;PMS7003;6186;52.022;4.692;2022-11-04T08:45:43;6.00;5.00;2.00
12246;PMS7003;6186;52.022;4.692;2022-11-04T08:48:10;4.40;4.40;2.40
12246;PMS7003;6186;52.022;4.692;2022-11-04T08:50:40;4.00;4.00;2.00
12246;PMS7003;6186;52.022;4.692;2022-11-04T08:53:06;6.75;5.00;2.50
12246;PMS7003;6186;52.022;4.692;2022-11-04T08:55:31;5.00;5.00;2.25
12246;PMS7003;6186;52.022;4.692;2022-11-04T08:57:57;6.20;5.00;3.00
12246;PMS7003;6186;52.022;4.692;2022-11-04T09:00:23;7.20;6.60;3.00
12246;PMS7003;6186;52.022;4.692;2022-11-04T09:02:48;8.25;8.00;3.00
12246;PMS7003;6186;52.022;4.692;2022-11-04T09:05:14;5.50;5.50;3.00
12246;PMS7003;6186;52.022;4.692;2022-11-04T09:07:39;5.50;5.00;3.00
12246;PMS7003;6186;52.022;4.692;2022-11-04T09:10:06;6.60;5.00;3.00
12246;PMS7003;6186;52.022;4.692;2022-11-04T09:12:31;6.20;5.00;3.20
12246;PMS7003;6186;52.022;4.692;2022-11-04T09:14:57;5.00;5.00;3.00
12246;PMS7003;6186;52.022;4.692;2022-11-04T09:17:22;6.00;6.00;3.00
12246;PMS7003;6186;52.022;4.692;2022-11-04T09:19:48;8.00;6.25;3.00
12246;PMS7003;6186;52.022;4.692;2022-11-04T09:22:13;5.75;5.25;3.00
12246;PMS7003;6186;52.022;4.692;2022-11-04T09:24:38;4.75;4.00;2.00
12246;PMS7003;6186;52.022;4.692;2022-11-04T09:27:04;5.00;4.25;2.25
12246;PMS7003;6186;52.022;4.692;2022-11-04T09:29:29;6.20;6.00;3.00
12246;PMS7003;6186;52.022;4.692;2022-11-04T09:31:57;6.20;6.20;3.00
12246;PMS7003;6186;52.022;4.692;2022-11-04T09:34:32;5.60;5.60;2.80
12246;PMS7003;6186;52.022;4.692;2022-11-04T09:36:58;7.00;7.00;3.00
12246;PMS7003;6186;52.022;4.692;2022-11-04T09:39:23;9.00;8.25;4.00
12246;PMS7003;6186;52.022;4.692;2022-11-04T09:47:23;9.00;9.00;4.00
12246;PMS7003;6186;52.022;4.692;2022-11-04T09:49:53;8.00;7.20;4.00
12246;PMS7003;6186;52.022;4.692;2022-11-04T09:52:23;9.00;7.00;3.80
12246;PMS7003;6186;52.022;4.692;2022-11-04T09:55:00;9.80;9.00;4.00
12246;PMS7003;6186;52.022;4.692;2022-11-04T09:57:31;8.00;7.00;3.60
12246;PMS7003;6186;52.022;4.692;2022-11-04T09:59:57;9.00;7.40;4.00
12246;PMS7003;6186;52.022;4.692;2022-11-04T10:11:20;8.80;8.00;4.00
12246;PMS7003;6186;52.022;4.692;2022-11-04T10:27:37;8.20;6.80;4.00
12246;PMS7003;6186;52.022;4.692;2022-11-04T10:30:06;7.60;6.80;3.80
12246;PMS7003;6186;52.022;4.692;2022-11-04T10:32:46;8.00;8.00;3.40
12246;PMS7003;6186;52.022;4.692;2022-11-04T10:37:51;6.20;6.20;3.20
12246;PMS7003;6186;52.022;4.692;2022-11-04T10:40:32;10.20;8.80;4.00
12246;PMS7003;6186;52.022;4.692;2022-11-04T10:43:01;8.40;7.60;3.60
12246;PMS7003;6186;52.022;4.692;2022-11-04T10:45:59;9.00;8.80;3.80
12246;PMS7003;6186;52.022;4.692;2022-11-04T10:48:35;9.80;9.80;5.00
12246;PMS7003;6186;52.022;4.692;2022-11-04T10:51:13;7.80;7.80;4.00
12246;PMS7003;6186;52.022;4.692;2022-11-04T10:53:46;9.00;9.00;4.60
12246;PMS7003;6186;52.022;4.692;2022-11-04T10:56:21;7.80;7.60;4.40
12246;PMS7003;6186;52.022;4.692;2022-11-04T10:58:55;9.00;9.00;4.80
12246;PMS7003;6186;52.022;4.692;2022-11-04T11:01:26;9.00;8.40;5.00
12246;PMS7003;6186;52.022;4.692;2022-11-04T11:03:57;9.00;9.00;4.80
12246;PMS7003;6186;52.022;4.692;2022-11-04T11:06:29;9.60;8.00;3.80
12246;PMS7003;6186;52.022;4.692;2022-11-04T11:08:58;9.00;7.60;4.00
12246;PMS7003;6186;52.022;4.692;2022-11-04T11:14:44;7.80;7.80;4.00
12246;PMS7003;6186;52.022;4.692;2022-11-04T11:19:49;10.40;10.40;6.00
12246;PMS7003;6186;52.022;4.692;2022-11-04T11:33:00;12.20;10.40;5.00
12246;PMS7003;6186;52.022;4.692;2022-11-04T11:35:30;8.20;8.20;4.60
12246;PMS7003;6186;52.022;4.692;2022-11-04T11:38:05;9.80;8.20;5.00
12246;PMS7003;6186;52.022;4.692;2022-11-04T11:40:38;8.00;7.60;4.00
12246;PMS7003;6186;52.022;4.692;2022-11-04T11:43:04;8.00;8.00;4.00
12246;PMS7003;6186;52.022;4.692;2022-11-04T11:45:30;8.50;7.50;4.50
12246;PMS7003;6186;52.022;4.692;2022-11-04T11:47:56;7.60;6.60;3.40
12246;PMS7003;6186;52.022;4.692;2022-11-04T11:50:26;4.00;4.00;2.00
12246;PMS7003;6186;52.022;4.692;2022-11-04T11:53:11;2.60;2.60;1.00
12246;PMS7003;6186;52.022;4.692;2022-11-04T11:55:40;3.00;3.00;1.00
12246;PMS7003;6186;52.022;4.692;2022-11-04T11:58:23;1.00;1.00;0.00
12246;PMS7003;6186;52.022;4.692;2022-11-04T12:00:59;2.00;1.80;0.20
12246;PMS7003;6186;52.022;4.692;2022-11-04T12:03:48;1.40;1.00;0.00
12246;PMS7003;6186;52.022;4.692;2022-11-04T12:09:04;1.60;1.60;0.00
12246;PMS7003;6186;52.022;4.692;2022-11-04T12:14:16;1.00;1.00;0.00
12246;PMS7003;6186;52.022;4.692;2022-11-04T12:20:09;1.00;1.00;0.00
12246;PMS7003;6186;52.022;4.692;2022-11-04T12:22:52;1.00;1.00;0.00
12246;PMS7003;6186;52.022;4.692;2022-11-04T12:25:21;1.00;1.00;0.00
12246;PMS7003;6186;52.022;4.692;2022-11-04T12:28:07;1.00;1.00;0.00
12246;PMS7003;6186;52.022;4.692;2022-11-04T12:30:39;1.00;1.00;0.00
12246;PMS7003;6186;52.022;4.692;2022-11-04T12:33:33;1.00;1.00;0.00
12246;PMS7003;6186;52.022;4.692;2022-11-04T12:38:53;1.00;1.00;0.00
12246;PMS7003;6186;52.022;4.692;2022-11-04T12:41:28;1.00;1.00;0.00
12246;PMS7003;6186;52.022;4.692;2022-11-04T12:44:21;1.80;1.00;0.00
12246;PMS7003;6186;52.022;4.692;2022-11-04T12:52:27;1.00;1.00;0.00
12246;PMS7003;6186;52.022;4.692;2022-11-04T13:00:33;1.40;1.00;0.00
12246;PMS7003;6186;52.022;4.692;2022-11-04T13:03:13;1.00;1.00;0.00
12246;PMS7003;6186;52.022;4.692;2022-11-04T13:06:07;1.00;1.00;0.00
12246;PMS7003;6186;52.022;4.692;2022-11-04T13:08:45;1.00;1.00;0.00
12246;PMS7003;6186;52.022;4.692;2022-11-04T13:13:52;1.00;1.00;0.00
12246;PMS7003;6186;52.022;4.692;2022-11-04T13:16:24;1.00;1.00;0.00
12246;PMS7003;6186;52.022;4.692;2022-11-04T13:18:51;1.00;1.00;0.00
12246;PMS7003;6186;52.022;4.692;2022-11-04T13:21:24;1.00;1.00;0.00
12246;PMS7003;6186;52.022;4.692;2022-11-04T13:23:59;1.00;1.00;0.00
12246;PMS7003;6186;52.022;4.692;2022-11-04T13:26:28;1.00;1.00;0.00
12246;PMS7003;6186;52.022;4.692;2022-11-04T13:29:03;1.00;1.00;0.00
12246;PMS7003;6186;52.022;4.692;2022-11-04T13:31:57;1.00;1.00;0.00
12246;PMS7003;6186;52.022;4.692;2022-11-04T13:39:58;1.00;1.00;0.00
12246;PMS7003;6186;52.022;4.692;2022-11-04T13:45:19;1.00;1.00;0.00
12246;PMS7003;6186;52.022;4.692;2022-11-04T13:47:52;1.00;1.00;0.00
12246;PMS7003;6186;52.022;4.692;2022-11-04T13:50:36;1.00;1.00;0.00
12246;PMS7003;6186;52.022;4.692;2022-11-04T13:53:04;1.00;1.00;0.00
12246;PMS7003;6186;52.022;4.692;2022-11-04T13:55:33;1.00;1.00;0.00
12246;PMS7003;6186;52.022;4.692;2022-11-04T13:58:03;1.00;1.00;0.00
12246;PMS7003;6186;52.022;4.692;2022-11-04T14:00:33;1.00;1.00;0.00
12246;PMS7003;6186;52.022;4.692;2022-11-04T14:05:46;1.00;1.00;0.00
12246;PMS7003;6186;52.022;4.692;2022-11-04T14:08:27;1.00;1.00;0.00
12246;PMS7003;6186;52.022;4.692;2022-11-04T14:16:05;1.00;1.00;0.00
12246;PMS7003;6186;52.022;4.692;2022-11-04T14:18:56;1.00;1.00;0.00
12246;PMS7003;6186;52.022;4.692;2022-11-04T14:21:25;1.00;1.00;0.00
12246;PMS7003;6186;52.022;4.692;2022-11-04T14:24:01;1.00;1.00;0.00
12246;PMS7003;6186;52.022;4.692;2022-11-04T14:26:40;1.00;1.00;0.00
12246;PMS7003;6186;52.022;4.692;2022-11-04T14:29:16;1.00;1.00;0.00
12246;PMS7003;6186;52.022;4.692;2022-11-04T14:31:44;1.00;1.00;0.00
12246;PMS7003;6186;52.022;4.692;2022-11-04T14:34:24;1.00;1.00;0.00
12246;PMS7003;6186;52.022;4.692;2022-11-04T14:36:56;1.00;1.00;0.00
12246;PMS7003;6186;52.022;4.692;2022-11-04T14:39:24;1.00;1.00;0.00
12246;PMS7003;6186;52.022;4.692;2022-11-04T14:41:58;1.00;1.00;0.00
12246;PMS7003;6186;52.022;4.692;2022-11-04T14:44:28;1.00;1.00;0.00
12246;PMS7003;6186;52.022;4.692;2022-11-04T14:47:12;1.00;1.00;0.00
12246;PMS7003;6186;52.022;4.692;2022-11-04T14:49:43;1.00;1.00;0.00
12246;PMS7003;6186;52.022;4.692;2022-11-04T14:54:42;1.00;1.00;0.00
12246;PMS7003;6186;52.022;4.692;2022-11-04T14:57:18;1.00;1.00;0.00
12246;PMS7003;6186;52.022;4.692;2022-11-04T14:59:45;1.00;1.00;0.00
12246;PMS7003;6186;52.022;4.692;2022-11-04T15:02:16;1.00;1.00;0.00
12246;PMS7003;6186;52.022;4.692;2022-11-04T15:04:55;1.00;1.00;0.00
12246;PMS7003;6186;52.022;4.692;2022-11-04T15:07:25;1.00;1.00;0.00
12246;PMS7003;6186;52.022;4.692;2022-11-04T15:10:02;1.80;1.00;0.00
12246;PMS7003;6186;52.022;4.692;2022-11-04T15:12:43;1.00;1.00;0.00
12246;PMS7003;6186;52.022;4.692;2022-11-04T15:15:24;2.00;2.00;0.00
12246;PMS7003;6186;52.022;4.692;2022-11-04T15:17:59;1.00;1.00;0.00
12246;PMS7003;6186;52.022;4.692;2022-11-04T15:20:31;2.00;2.00;0.00
12246;PMS7003;6186;52.022;4.692;2022-11-04T15:23:00;2.00;1.60;0.00
12246;PMS7003;6186;52.022;4.692;2022-11-04T15:25:27;1.00;1.00;0.00
12246;PMS7003;6186;52.022;4.692;2022-11-04T15:27:53;1.50;1.50;0.00
12246;PMS7003;6186;52.022;4.692;2022-11-04T15:30:27;2.00;2.00;0.00
12246;PMS7003;6186;52.022;4.692;2022-11-04T15:32:59;1.00;1.00;0.00
12246;PMS7003;6186;52.022;4.692;2022-11-04T15:35:27;1.60;1.60;0.00
12246;PMS7003;6186;52.022;4.692;2022-11-04T15:37:56;2.00;1.00;0.00
12246;PMS7003;6186;52.022;4.692;2022-11-04T15:40:28;1.00;1.00;0.00
12246;PMS7003;6186;52.022;4.692;2022-11-04T15:42:56;2.00;2.00;0.00
12246;PMS7003;6186;52.022;4.692;2022-11-04T15:45:38;2.00;1.80;0.00
12246;PMS7003;6186;52.022;4.692;2022-11-04T15:53:44;1.00;1.00;0.00
12246;PMS7003;6186;52.022;4.692;2022-11-04T15:56:13;1.00;1.00;0.00
12246;PMS7003;6186;52.022;4.692;2022-11-04T15:58:41;1.00;1.00;0.00
12246;PMS7003;6186;52.022;4.692;2022-11-04T16:01:08;1.00;1.00;0.00
12246;PMS7003;6186;52.022;4.692;2022-11-04T16:03:38;3.00;2.00;0.00
12246;PMS7003;6186;52.022;4.692;2022-11-04T16:06:06;1.50;1.50;0.00
12246;PMS7003;6186;52.022;4.692;2022-11-04T16:08:33;2.00;2.00;0.00
12246;PMS7003;6186;52.022;4.692;2022-11-04T16:11:16;1.40;1.00;0.00
12246;PMS7003;6186;52.022;4.692;2022-11-04T16:13:44;1.00;1.00;0.00
12246;PMS7003;6186;52.022;4.692;2022-11-04T16:18:43;2.00;2.00;0.20
12246;PMS7003;6186;52.022;4.692;2022-11-04T16:21:22;2.00;2.00;0.20
12246;PMS7003;6186;52.022;4.692;2022-11-04T16:26:37;2.00;1.40;0.00
12246;PMS7003;6186;52.022;4.692;2022-11-04T16:29:06;1.80;1.00;0.00
12246;PMS7003;6186;52.022;4.692;2022-11-04T16:31:35;2.00;2.00;0.00
12246;PMS7003;6186;52.022;4.692;2022-11-04T16:34:01;2.00;2.00;0.40
12246;PMS7003;6186;52.022;4.692;2022-11-04T16:36:27;2.20;2.00;0.00
12246;PMS7003;6186;52.022;4.692;2022-11-04T16:41:23;2.60;2.00;1.00
12246;PMS7003;6186;52.022;4.692;2022-11-04T16:43:50;2.20;2.00;0.00
12246;PMS7003;6186;52.022;4.692;2022-11-04T16:46:16;2.00;2.00;0.60
12246;PMS7003;6186;52.022;4.692;2022-11-04T16:48:42;2.00;2.00;0.60
12246;PMS7003;6186;52.022;4.692;2022-11-04T16:51:12;2.00;2.00;0.00
12246;PMS7003;6186;52.022;4.692;2022-11-04T16:53:40;3.20;2.40;1.00
12246;PMS7003;6186;52.022;4.692;2022-11-04T16:56:05;2.50;2.50;0.75
12246;PMS7003;6186;52.022;4.692;2022-11-04T16:58:31;3.00;2.00;0.40
12246;PMS7003;6186;52.022;4.692;2022-11-04T17:00:57;3.00;3.00;1.00
12246;PMS7003;6186;52.022;4.692;2022-11-04T17:03:22;2.00;2.00;0.00
12246;PMS7003;6186;52.022;4.692;2022-11-04T17:05:49;1.50;1.50;0.00
12246;PMS7003;6186;52.022;4.692;2022-11-04T17:08:17;2.00;2.00;1.00
12246;PMS7003;6186;52.022;4.692;2022-11-04T17:10:43;2.00;2.00;0.00
12246;PMS7003;6186;52.022;4.692;2022-11-04T17:13:08;2.00;2.00;0.00
12246;PMS7003;6186;52.022;4.692;2022-11-04T17:15:34;2.00;2.00;0.60
12246;PMS7003;6186;52.022;4.692;2022-11-04T17:17:59;2.25;2.00;0.00
12246;PMS7003;6186;52.022;4.692;2022-11-04T17:20:25;3.00;3.00;1.00